»·PEaware :: UAL576 KLAS-KSUN

UAL576 :: KLAS-KSUN

FLIGHT INFORMATION

Flight Status: Arrived
Operator:
United Airlines
More flights by this operator :: More flights under this callsign
Pilot: Anonymous 8274 (8274)
Aircraft: BOEING 737-200
(B732)
More flights by this aircraft type
Origin: KLAS McCarran Intl
United States
Destination: KSUN Friedman Meml
United States
More flights between these airports :: More routes between these airports
Route: +LAS5 TRALR BCE J11 TCH J12 TWF V484 KINZE V444 SOLDE
File this flight plan on PilotEdge
Remarks:
Altitude:
(Current/Filed)
30,000ft
Speed:
(Current/Filed)
448kts
Departed: 06-Sep-19 07:57 PM
Arrived: 06-Sep-19 09:43 PM
Distance/Time
Traveled:
447nm/1:45
Distance/Time
To Go:
Arrived

Flight Plot

Page will automatically refresh every two minutes.

Flight plan parsing failed; only flown route is shown


Map Options




Map Legend


Flown Route
Filed Route
Departure Airport
Arrival Airport
Navaid (VOR, NDB)
Fix

Horizontal Profiles

Position Reports

Time Latitude Longitude Heading Altitude Ground
Speed
06-Sep-19 18:44 36.083159 -115.136530 133 2120ft 0kts
06-Sep-19 18:45 36.083159 -115.136530 133 2120ft 0kts
06-Sep-19 18:46 36.083159 -115.136530 133 2120ft 0kts
06-Sep-19 18:47 36.083159 -115.136530 133 2120ft 0kts
06-Sep-19 18:48 36.083159 -115.136530 133 2120ft 0kts
06-Sep-19 18:49 36.083159 -115.136530 133 2120ft 0kts
06-Sep-19 18:50 36.083159 -115.136530 133 2120ft 0kts
06-Sep-19 18:51 36.083159 -115.136530 133 2120ft 0kts
06-Sep-19 18:52 36.083159 -115.136530 133 2120ft 0kts
06-Sep-19 18:53 36.083159 -115.136530 133 2120ft 0kts
06-Sep-19 18:53 36.083159 -115.136530 133 2120ft 0kts
06-Sep-19 18:55 36.083159 -115.136530 133 2120ft 0kts
06-Sep-19 18:56 36.083159 -115.136530 133 2120ft 0kts
06-Sep-19 18:57 36.083159 -115.136530 133 2120ft 0kts
06-Sep-19 18:57 36.083159 -115.136530 133 2120ft 0kts
06-Sep-19 18:59 36.083159 -115.136530 133 2120ft 0kts
06-Sep-19 19:00 36.083159 -115.136530 133 2120ft 0kts
06-Sep-19 19:00 36.083159 -115.136530 133 2120ft 0kts
06-Sep-19 19:02 36.083159 -115.136530 133 2120ft 0kts
06-Sep-19 19:02 36.083159 -115.136530 133 2120ft 0kts
06-Sep-19 19:03 36.083159 -115.136530 133 2120ft 0kts
06-Sep-19 19:04 36.083159 -115.136530 133 2120ft 0kts
06-Sep-19 19:06 36.083159 -115.136530 133 2120ft 0kts
06-Sep-19 19:06 36.083159 -115.136530 133 2120ft 0kts
06-Sep-19 19:07 36.083159 -115.136530 133 2120ft 0kts
06-Sep-19 19:08 36.083159 -115.136530 133 2120ft 0kts
06-Sep-19 19:09 36.083159 -115.136530 133 2120ft 0kts
06-Sep-19 19:10 36.083159 -115.136530 133 2120ft 0kts
06-Sep-19 19:11 36.083159 -115.136530 133 2120ft 0kts
06-Sep-19 19:12 36.083159 -115.136530 133 2120ft 0kts
06-Sep-19 19:13 36.083159 -115.136530 133 2120ft 0kts
06-Sep-19 19:14 36.083159 -115.136530 133 2120ft 0kts
06-Sep-19 19:15 36.083159 -115.136530 133 2120ft 0kts
06-Sep-19 19:16 36.083159 -115.136530 133 2120ft 0kts
06-Sep-19 19:17 36.083159 -115.136530 133 2120ft 0kts
06-Sep-19 19:18 36.083159 -115.136530 133 2120ft 0kts
06-Sep-19 19:19 36.083159 -115.136530 133 2120ft 0kts
06-Sep-19 19:20 36.083159 -115.136530 133 2120ft 0kts
06-Sep-19 19:21 36.083159 -115.136530 133 2120ft 0kts
06-Sep-19 19:22 36.083159 -115.136530 133 2120ft 0kts
06-Sep-19 19:23 36.083159 -115.136530 133 2120ft 0kts
06-Sep-19 19:24 36.083159 -115.136530 133 2120ft 0kts
06-Sep-19 19:25 36.083159 -115.136530 133 2120ft 0kts
06-Sep-19 19:26 36.083159 -115.136530 133 2120ft 0kts
06-Sep-19 19:27 36.083159 -115.136530 133 2120ft 0kts
06-Sep-19 19:28 36.083159 -115.136530 133 2120ft 0kts
06-Sep-19 19:29 36.083159 -115.136530 133 2120ft 0kts
06-Sep-19 19:30 36.083159 -115.136530 133 2120ft 0kts
06-Sep-19 19:31 36.083159 -115.136530 133 2120ft 0kts
06-Sep-19 19:32 36.083159 -115.136530 133 2120ft 0kts
06-Sep-19 19:33 36.083159 -115.136530 133 2120ft 0kts
06-Sep-19 19:34 36.083159 -115.136530 133 2120ft 0kts
06-Sep-19 19:35 36.083159 -115.136530 133 2120ft 0kts
06-Sep-19 19:36 36.083159 -115.136530 133 2120ft 0kts
06-Sep-19 19:37 36.083159 -115.136530 133 2120ft 0kts
06-Sep-19 19:38 36.083159 -115.136530 133 2120ft 0kts
06-Sep-19 19:39 36.083320 -115.136668 133 2120ft 2kts
06-Sep-19 19:40 36.083641 -115.137185 84 2120ft 2kts
06-Sep-19 19:41 36.083561 -115.137363 40 2120ft 0kts
06-Sep-19 19:42 36.083561 -115.137363 40 2120ft 0kts
06-Sep-19 19:43 36.083561 -115.137363 40 2120ft 0kts
06-Sep-19 19:44 36.083561 -115.137363 40 2120ft 0kts
06-Sep-19 19:45 36.083626 -115.137280 47 2120ft 4kts
06-Sep-19 19:46 36.083949 -115.134701 132 2120ft 11kts
06-Sep-19 19:47 36.080358 -115.132961 179 2120ft 16kts
06-Sep-19 19:48 36.079075 -115.132967 180 2120ft 0kts
06-Sep-19 19:49 36.079075 -115.132967 180 2120ft 0kts
06-Sep-19 19:50 36.078254 -115.129683 90 2120ft 19kts
06-Sep-19 19:51 36.078226 -115.122878 102 2120ft 14kts
06-Sep-19 19:52 36.077429 -115.121510 139 2120ft 0kts
06-Sep-19 19:53 36.077429 -115.121510 139 2120ft 0kts
06-Sep-19 19:54 36.077429 -115.121510 139 2120ft 0kts
06-Sep-19 19:55 36.076597 -115.121254 181 2120ft 4kts
06-Sep-19 19:56 36.076392 -115.127452 269 2120ft 88kts
06-Sep-19 19:57 36.077118 -115.175149 268 3117ft 147kts
06-Sep-19 19:58 36.074873 -115.228520 242 4169ft 165kts
06-Sep-19 19:59 36.027692 -115.257053 200 5126ft 225kts
06-Sep-19 20:00 35.961576 -115.285910 201 6091ft 277kts
06-Sep-19 20:01 35.890029 -115.318260 201 7636ft 287kts
06-Sep-19 20:02 35.813185 -115.336207 156 9245ft 293kts
06-Sep-19 20:03 35.797400 -115.244449 62 11035ft 327kts
06-Sep-19 20:04 35.848355 -115.146180 56 13000ft 352kts
06-Sep-19 20:05 35.903213 -115.043518 56 14943ft 369kts
06-Sep-19 20:06 35.960101 -114.935982 56 16890ft 377kts
06-Sep-19 20:07 36.017692 -114.826091 56 18529ft 389kts
06-Sep-19 20:08 36.077262 -114.712265 56 19984ft 400kts
06-Sep-19 20:09 36.136693 -114.598810 56 21431ft 405kts
06-Sep-19 20:10 36.173848 -114.467764 77 22811ft 409kts
06-Sep-19 20:11 36.235685 -114.352088 45 23905ft 414kts
06-Sep-19 20:12 36.314728 -114.249936 45 24729ft 425kts
06-Sep-19 20:13 36.397895 -114.142490 46 25488ft 436kts
06-Sep-19 20:14 36.479816 -114.030303 47 26317ft 442kts
06-Sep-19 20:15 36.562457 -113.916762 47 27354ft 441kts
06-Sep-19 20:16 36.644409 -113.804287 47 28342ft 440kts
06-Sep-19 20:17 36.726742 -113.691497 46 29104ft 443kts
06-Sep-19 20:18 36.810361 -113.577121 46 29718ft 448kts
06-Sep-19 20:19 36.894534 -113.462151 46 30335ft 451kts
06-Sep-19 20:20 36.976527 -113.349939 47 30917ft 454kts
06-Sep-19 20:21 37.057559 -113.236272 51 31054ft 466kts
06-Sep-19 20:22 37.133962 -113.109757 53 31052ft 472kts
06-Sep-19 20:23 37.212830 -112.978024 52 31207ft 469kts
06-Sep-19 20:24 37.293391 -112.849923 49 31391ft 467kts
06-Sep-19 20:25 37.376551 -112.724682 47 31415ft 469kts
06-Sep-19 20:26 37.468503 -112.608054 43 31412ft 471kts
06-Sep-19 20:27 37.562237 -112.492015 43 31412ft 473kts
06-Sep-19 20:28 37.645787 -112.364397 57 31412ft 475kts
06-Sep-19 20:29 37.742115 -112.268769 2 31410ft 463kts
06-Sep-19 20:30 37.864827 -112.293116 9 31344ft 465kts
06-Sep-19 20:31 37.991601 -112.263157 1 31307ft 466kts
06-Sep-19 20:32 38.114106 -112.247937 3 31310ft 466kts
06-Sep-19 20:33 38.243083 -112.229848 3 31321ft 465kts
06-Sep-19 20:34 38.371298 -112.211653 3 31274ft 465kts
06-Sep-19 20:35 38.499636 -112.194020 3 31264ft 464kts
06-Sep-19 20:36 38.627389 -112.176908 3 31265ft 462kts
06-Sep-19 20:37 38.755159 -112.159955 3 31265ft 461kts
06-Sep-19 20:38 38.882199 -112.143063 3 31265ft 460kts
06-Sep-19 20:39 39.009154 -112.125747 3 31243ft 460kts
06-Sep-19 20:40 39.114208 -112.111077 3 31236ft 460kts
06-Sep-19 20:41 39.241177 -112.093220 3 31239ft 459kts
06-Sep-19 20:42 39.367659 -112.075469 3 31239ft 459kts
06-Sep-19 20:43 39.493593 -112.053105 7 31245ft 459kts
06-Sep-19 20:44 39.619443 -112.025678 6 31247ft 458kts
06-Sep-19 20:45 39.745427 -112.006797 2 31252ft 456kts
06-Sep-19 20:46 39.871512 -111.994860 1 31251ft 456kts
06-Sep-19 20:47 39.997702 -111.979726 4 31250ft 456kts
06-Sep-19 20:48 40.118927 -111.961962 3 31253ft 455kts
06-Sep-19 20:49 40.244339 -111.944837 3 31265ft 455kts
06-Sep-19 20:50 40.368951 -111.938932 338 31270ft 444kts
06-Sep-19 20:51 40.490027 -111.956144 355 31269ft 448kts
06-Sep-19 20:52 40.614851 -111.963086 354 31271ft 448kts
06-Sep-19 20:53 40.739765 -111.972221 353 31268ft 449kts
06-Sep-19 20:54 40.864606 -111.983317 352 31260ft 449kts
06-Sep-19 20:56 40.988518 -111.996893 351 31260ft 448kts
06-Sep-19 20:57 41.090806 -112.065244 294 31242ft 419kts
06-Sep-19 20:58 41.127486 -112.202439 286 31237ft 417kts
06-Sep-19 20:59 41.163161 -112.348037 286 31237ft 416kts
06-Sep-19 21:00 41.199597 -112.492170 302 31238ft 419kts
06-Sep-19 21:01 41.273646 -112.611964 308 31238ft 421kts
06-Sep-19 21:02 41.349624 -112.725520 308 31238ft 421kts
06-Sep-19 21:03 41.428212 -112.841596 308 31237ft 422kts
06-Sep-19 21:04 41.506251 -112.957724 308 31231ft 422kts
06-Sep-19 21:05 41.583911 -113.075370 307 31228ft 422kts
06-Sep-19 21:06 41.660552 -113.193491 307 31230ft 421kts
06-Sep-19 21:07 41.737231 -113.312518 307 31230ft 421kts
06-Sep-19 21:08 41.812045 -113.432949 305 31227ft 420kts
06-Sep-19 21:09 41.886613 -113.553730 307 31228ft 421kts
06-Sep-19 21:10 41.961457 -113.666027 307 31235ft 418kts
06-Sep-19 21:11 42.039003 -113.782364 306 31230ft 415kts
06-Sep-19 21:12 42.111834 -113.897217 306 31227ft 412kts
06-Sep-19 21:13 42.185111 -114.015172 305 31228ft 409kts
06-Sep-19 21:13 42.245821 -114.113290 305 31232ft 407kts
06-Sep-19 21:15 42.329459 -114.246804 306 29823ft 389kts
06-Sep-19 21:16 42.397333 -114.355896 306 27962ft 372kts
06-Sep-19 21:16 42.451942 -114.443887 306 26394ft 360kts
06-Sep-19 21:18 42.542297 -114.532550 358 23838ft 383kts
06-Sep-19 21:19 42.644713 -114.484865 19 21647ft 393kts
06-Sep-19 21:19 42.728499 -114.443895 2 19882ft 376kts
06-Sep-19 21:20 42.831075 -114.430532 359 17855ft 366kts
06-Sep-19 21:22 42.947565 -114.417843 359 15585ft 356kts
06-Sep-19 21:22 43.028701 -114.407357 2 14014ft 349kts
06-Sep-19 21:23 43.117050 -114.418250 321 12161ft 326kts
06-Sep-19 21:24 43.184724 -114.495575 318 10994ft 297kts
06-Sep-19 21:25 43.243988 -114.561027 319 10995ft 260kts
06-Sep-19 21:26 43.301828 -114.534974 74 11003ft 277kts
06-Sep-19 21:27 43.304518 -114.429085 96 9869ft 281kts
06-Sep-19 21:28 43.308350 -114.324744 70 8828ft 268kts
06-Sep-19 21:29 43.325554 -114.236842 116 8784ft 221kts
06-Sep-19 21:30 43.268169 -114.215641 185 8324ft 241kts
06-Sep-19 21:31 43.206295 -114.211783 200 8083ft 208kts
06-Sep-19 21:32 43.157297 -114.246384 181 8074ft 191kts
06-Sep-19 21:33 43.153058 -114.199130 29 8075ft 178kts
06-Sep-19 21:34 43.202699 -114.205061 347 8098ft 182kts
06-Sep-19 21:35 43.252163 -114.218673 347 8094ft 179kts
06-Sep-19 21:36 43.300607 -114.233408 344 8100ft 178kts
06-Sep-19 21:37 43.348691 -114.250080 344 8082ft 172kts
06-Sep-19 21:38 43.394834 -114.262298 354 7951ft 157kts
06-Sep-19 21:39 43.436683 -114.264847 357 7087ft 147kts
06-Sep-19 21:40 43.477030 -114.270108 331 5808ft 143kts
06-Sep-19 21:41 43.507091 -114.298752 324 5299ft 66kts
06-Sep-19 21:42 43.507771 -114.301306 203 5299ft 7kts
06-Sep-19 21:43 43.506884 -114.301835 159 5299ft 0kts

Navigation Log

Ident Type
Flight plan parsing failed, navigation log unavailable